Latest Weather Observations for Roseworthy

IDS60901

Issued at 3:21 pm CDT Tuesday 27 February 2024 (issued every 10 minutes, with the page automatically refreshed every 10 minutes)

About weather observations | Map of Adelaide area stations | Latest observations for Adelaide area | Other Formats
Station Details ID: 023122 Name: ROSEWORTHY AWS Lat: -34.51 Lon: 138.68 Height: 65.0 m
Data from the previous 72 hours. | See also: Recent months at Roseworthy
Date/Time
CDT
Temp
°C
App
Temp
°C
Dew
Point
°C
Rel
Hum
%
Delta-T
°C
Wind Press
QNH
hPa
Press
MSL
hPa
Rain since
9am
mm
Dir  Spd
km/h
Gust
km/h
Spd
kts
Gust
kts
27/03:00pm 38.6 34.6 8.3 16 17.4 W 19 35 10 19 1007.8 1007.5 0.0
27/02:30pm 38.6 33.4 7.4 15 17.7 WNW 24 33 13 18 1008.3 1008.1 0.0
27/02:00pm 37.6 32.8 5.6 14 17.6 W 20 32 11 17 1008.7 1008.5 0.0
27/01:30pm 37.2 31.6 5.3 14 17.4 WNW 24 41 13 22 1009.1 1008.9 0.0
27/01:00pm 36.8 31.5 4.9 14 17.2 NW 22 35 12 19 1009.4 1009.2 0.0
27/12:30pm 36.9 31.0 4.0 13 17.6 NW 24 35 13 19 1009.7 1009.5 0.0
27/12:00pm 35.2 29.8 4.7 15 16.3 NW 22 35 12 19 1010.1 1009.9 0.0
27/11:30am 35.1 29.1 3.6 14 16.5 NW 24 33 13 18 1010.6 1010.4 0.0
27/11:00am 33.9 29.3 6.3 18 15.0 NNW 20 30 11 16 1010.8 1010.6 0.0
27/10:30am 32.7 28.2 6.8 20 14.1 N 20 30 11 16 1011.0 1010.8 0.0
27/10:00am 31.2 26.7 10.0 27 12.1 NE 24 32 13 17 1011.2 1011.0 0.0
27/09:30am 28.8 23.4 9.5 30 10.8 NE 28 35 15 19 1011.4 1011.2 0.0
27/09:00am 27.3 21.7 10.1 34 9.6 NE 30 35 16 19 1011.4 1011.2 0.0
27/08:30am 24.1 18.5 8.9 38 8.2 NE 28 35 15 19 1011.4 1011.2 0.0
27/08:00am 21.6 15.8 7.8 41 7.2 NE 28 35 15 19 1011.3 1011.1 0.0
27/07:30am 20.6 16.3 7.9 44 6.6 ENE 20 30 11 16 1011.3 1011.1 0.0
27/07:00am 20.4 16.2 7.4 43 6.7 ENE 19 24 10 13 1011.0 1010.8 0.0
27/06:30am 20.9 16.0 6.8 40 7.2 ENE 22 28 12 15 1010.7 1010.5 0.0
27/06:00am 20.5 15.5 6.5 40 7.1 ENE 22 26 12 14 1010.7 1010.5 0.0
27/05:30am 21.0 15.7 6.9 40 7.2 ENE 24 32 13 17 1010.8 1010.6 0.0
27/05:00am 21.4 16.1 6.9 39 7.4 ENE 24 32 13 17 1010.8 1010.6 0.0
27/04:30am 21.2 16.4 7.4 41 7.1 ENE 22 30 12 16 1011.1 1010.9 0.0
27/04:00am 21.8 17.4 7.6 40 7.4 ENE 20 26 11 14 1011.1 1010.9 0.0
27/03:30am 21.8 18.1 8.0 41 7.2 E 17 20 9 11 1011.6 1011.4 0.0
27/03:00am 22.6 19.2 9.0 42 7.3 E 17 22 9 12 1011.8 1011.6 0.0
27/02:30am 22.5 20.1 10.0 45 6.8 E 13 19 7 10 1012.1 1011.9 0.0
27/02:00am 22.7 19.6 10.2 45 6.9 E 17 20 9 11 1012.4 1012.2 0.0
27/01:30am 23.1 19.7 10.5 45 7.0 E 19 22 10 12 1012.6 1012.4 0.0
27/01:00am 22.5 20.6 11.9 51 6.0 ESE 13 15 7 8 1012.9 1012.7 0.0
27/12:30am 23.2 20.9 11.6 48 6.5 ESE 15 20 8 11 1013.3 1013.1 0.0
27/12:00am 23.3 21.2 12.3 50 6.3 ESE 15 22 8 12 1013.5 1013.2 0.0
 
Date/Time
CDT
Temp
°C
App
Temp
°C
Dew
Point
°C
Rel
Hum
%
Delta-T
°C
Wind Press
QNH
hPa
Press
MSL
hPa
Rain since
9am
mm
Dir  Spd
km/h
Gust
km/h
Spd
kts
Gust
kts
26/11:30pm 23.3 21.6 12.6 51 6.1 E 13 17 7 9 1013.6 1013.3 0.0
26/11:00pm 23.5 22.0 13.1 52 6.0 ESE 13 17 7 9 1014.0 1013.7 0.0
26/10:30pm 23.4 22.3 13.0 52 6.0 ESE 11 15 6 8 1014.3 1014.0 0.0
26/10:00pm 23.4 21.5 13.0 52 6.0 E 15 19 8 10 1014.1 1013.8 0.0
26/09:30pm 23.7 21.1 13.3 52 6.0 E 19 20 10 11 1014.1 1013.8 0.0
26/09:00pm 24.3 21.7 13.2 50 6.5 E 19 24 10 13 1014.2 1013.9 0.0
26/08:30pm 25.3 22.9 12.5 45 7.4 E 17 24 9 13 1014.3 1014.0 0.0
26/08:00pm 26.1 23.7 11.5 40 8.3 ESE 15 19 8 10 1014.4 1014.1 0.0
26/07:30pm 26.7 24.6 11.2 38 8.8 E 13 19 7 10 1014.4 1014.1 0.0
26/07:00pm 26.9 24.3 10.6 36 9.2 E 15 20 8 11 1014.2 1013.9 0.0
26/06:30pm 27.2 24.6 10.8 36 9.3 E 15 20 8 11 1014.1 1013.8 0.0
26/06:00pm 27.5 25.0 11.1 36 9.3 ESE 15 20 8 11 1014.3 1014.0 0.0
26/05:30pm 27.7 25.2 10.9 35 9.6 ESE 15 22 8 12 1014.2 1013.9 0.0
26/05:00pm 27.7 25.3 11.3 36 9.4 ENE 15 22 8 12 1014.3 1014.0 0.0
26/04:30pm 27.5 25.3 10.7 35 9.5 E 13 20 7 11 1014.6 1014.3 0.0
26/04:00pm 27.5 24.9 10.7 35 9.5 ENE 15 19 8 10 1014.8 1014.5 0.0
26/03:30pm 27.3 24.4 10.9 36 9.3 NE 17 24 9 13 1015.1 1014.8 0.0
26/03:00pm 27.7 24.8 10.9 35 9.5 ENE 17 22 9 12 1015.4 1015.1 0.0
26/02:30pm 27.8 24.6 10.1 33 9.9 ENE 17 20 9 11 1015.8 1015.5 0.0
26/02:00pm 27.2 24.5 11.7 38 8.9 ENE 17 28 9 15 1016.1 1015.8 0.0
26/01:30pm 26.9 23.5 11.4 38 8.8 ENE 20 30 11 16 1016.5 1016.2 0.0
26/01:00pm 26.1 23.4 11.8 41 8.2 E 17 28 9 15 1017.0 1016.7 0.0
26/12:30pm 25.4 22.3 12.3 44 7.5 E 20 32 11 17 1017.2 1016.9 0.0
26/12:00pm 24.0 20.1 12.0 47 6.8 ENE 24 35 13 19 1017.6 1017.3 0.0
26/11:30am 23.2 19.8 12.5 51 6.1 ENE 22 32 12 17 1018.1 1017.8 0.0
26/11:00am 22.5 18.2 12.2 52 5.8 ENE 26 35 14 19 1017.6 1017.3 0.0
26/10:30am 22.5 19.2 12.7 54 5.6 E 22 28 12 15 1017.9 1017.6 0.0
26/10:00am 21.6 20.0 12.7 57 5.1 E 13 19 7 10 1018.2 1017.9 0.0
26/09:30am 20.4 17.7 12.9 62 4.3 E 19 22 10 12 1017.8 1017.5 0.0
26/09:00am 19.0 17.0 12.7 67 3.5 SE 15 20 8 11 1017.8 1017.5 0.0
26/08:30am 18.7 17.1 12.9 69 3.3 ESE 13 17 7 9 1017.8 1017.5 0.0
26/08:00am 17.8 16.9 12.7 72 2.9 ESE 9 13 5 7 1017.6 1017.3 0.0
26/07:30am 16.6 16.1 12.2 75 2.4 E 6 11 3 6 1017.4 1017.1 0.0
26/07:00am 16.7 15.1 11.6 72 2.8 E 11 17 6 9 1017.0 1016.7 0.0
26/06:30am 17.6 14.8 12.5 72 2.8 ESE 19 24 10 13 1016.9 1016.6 0.0
26/06:00am 17.7 14.8 12.4 71 2.9 ESE 19 26 10 14 1016.6 1016.3 0.0
26/05:30am 17.7 15.0 11.7 68 3.3 ESE 17 22 9 12 1016.4 1016.1 0.0
26/05:00am 18.1 14.9 11.4 65 3.7 ESE 19 28 10 15 1016.2 1015.9 0.0
26/04:30am 18.0 14.8 11.1 64 3.7 E 19 26 10 14 1016.1 1015.8 0.0
26/04:00am 18.3 14.8 10.9 62 4.0 ESE 20 28 11 15 1016.2 1015.9 0.0
26/03:30am 18.2 15.0 11.3 64 3.8 ESE 19 24 10 13 1016.2 1015.9 0.0
26/03:00am 18.2 15.2 12.0 67 3.4 ESE 19 24 10 13 1016.0 1015.7 0.0
26/02:30am 18.2 15.5 11.7 66 3.6 ESE 17 24 9 13 1016.1 1015.8 0.0
26/02:00am 18.6 15.5 11.7 64 3.8 ESE 19 26 10 14 1015.9 1015.6 0.0
26/01:30am 18.8 16.0 11.4 62 4.1 ESE 17 26 9 14 1016.1 1015.8 0.0
26/01:00am 19.0 16.2 11.3 61 4.2 ESE 17 22 9 12 1015.9 1015.6 0.0
26/12:30am 19.4 16.6 11.4 60 4.4 SE 17 24 9 13 1015.9 1015.6 0.0
26/12:00am 19.8 16.3 11.0 57 4.8 ESE 20 30 11 16 1015.7 1015.4 0.0
 
Date/Time
CDT
Temp
°C
App
Temp
°C
Dew
Point
°C
Rel
Hum
%
Delta-T
°C
Wind Press
QNH
hPa
Press
MSL
hPa
Rain since
9am
mm
Dir  Spd
km/h
Gust
km/h
Spd
kts
Gust
kts
25/11:30pm 20.1 16.9 9.9 52 5.5 ESE 17 22 9 12 1015.9 1015.6 0.0
25/11:00pm 20.4 16.5 9.6 50 5.8 ESE 20 28 11 15 1015.9 1015.6 0.0
25/10:30pm 21.3 18.0 9.5 47 6.3 ESE 17 24 9 13 1015.6 1015.3 0.0
25/10:00pm 21.4 20.9 12.5 57 5.0 S 7 9 4 5 1015.3 1015.0 0.0
25/09:30pm 22.3 21.2 12.0 52 5.8 WSW 9 13 5 7 1014.9 1014.6 0.0
25/09:00pm 22.3 20.7 8.1 40 7.5 WSW 6 9 3 5 1014.6 1014.3 0.0
25/08:30pm 24.2 22.4 7.8 35 8.7 SW 7 9 4 5 1014.3 1014.0 0.0
25/08:00pm 25.5 23.0 8.1 33 9.3 SSW 11 15 6 8 1014.0 1013.7 0.0
25/07:30pm 26.3 23.4 8.3 32 9.7 SW 13 17 7 9 1013.8 1013.5 0.0
25/07:00pm 27.4 24.3 8.8 31 10.2 SW 15 20 8 11 1013.5 1013.2 0.0
25/06:30pm 29.6 25.1 6.9 24 12.2 SW 20 26 11 14 1013.3 1013.1 0.0
25/06:00pm 30.2 25.2 4.8 20 13.2 SW 20 26 11 14 1013.3 1013.1 0.0
25/05:30pm 31.3 26.7 6.4 21 13.4 SW 20 30 11 16 1013.2 1013.0 0.0
25/05:00pm 31.6 26.9 5.9 20 13.7 SW 20 30 11 16 1013.2 1013.0 0.0
25/04:30pm 31.8 26.7 6.1 20 13.8 SSW 22 32 12 17 1013.5 1013.2 0.0
25/04:00pm 31.5 26.1 6.5 21 13.5 SW 24 35 13 19 1013.6 1013.3 0.0
25/03:30pm 31.4 25.9 5.8 20 13.6 SW 24 35 13 19 1013.5 1013.2 0.0
25/03:00pm 31.3 25.8 4.2 18 14.0 SW 22 33 12 18 1013.8 1013.5 0.0
25/02:30pm 32.1 26.8 4.8 18 14.4 SSW 22 39 12 21 1013.8 1013.5 0.0
25/02:00pm 31.6 26.4 3.6 17 14.4 SW 20 32 11 17 1014.0 1013.7 0.0
25/01:30pm 32.3 27.4 4.2 17 14.7 SW 19 28 10 15 1014.0 1013.7 0.0
25/01:00pm 31.7 26.7 3.7 17 14.4 SW 19 28 10 15 1014.1 1013.8 0.0
25/12:30pm 31.4 26.2 3.4 17 14.3 W 20 33 11 18 1014.7 1014.4 0.0
25/12:00pm 31.1 26.4 3.2 17 14.2 WSW 17 28 9 15 1014.7 1014.4 0.0
25/11:30am 30.3 25.6 3.4 18 13.7 W 17 32 9 17 1015.0 1014.7 0.0
25/11:00am 29.9 23.7 2.2 17 13.8 WNW 24 32 13 17 1015.0 1014.7 0.0
25/10:30am 29.0 23.8 2.3 18 13.2 NW 19 28 10 15 1014.8 1014.5 0.0
25/10:00am 26.1 22.8 2.7 22 11.4 NNW 9 15 5 8 1014.7 1014.4 0.0
25/09:30am 24.1 21.8 2.9 25 10.2 NNW 4 9 2 5 1015.0 1014.7 0.0
25/09:00am 22.8 20.3 3.9 29 9.2 NNE 6 9 3 5 1014.8 1014.5 0.0
25/08:30am 20.5 17.5 4.1 34 7.9 NE 9 9 5 5 1014.8 1014.5 0.0
25/08:00am 16.4 14.0 5.1 47 5.4 E 7 9 4 5 1014.8 1014.5 0.0
25/07:30am 12.1 9.2 4.8 61 3.3 ENE 9 9 5 5 1014.7 1014.4 0.0
25/07:00am 11.1 9.9 4.6 64 2.9 CALM 0 0 0 0 1014.4 1014.1 0.0
25/06:30am 12.0 10.7 4.0 58 3.6 CALM 0 0 0 0 1014.2 1013.9 0.0
25/06:00am 12.5 10.0 4.7 59 3.6 NE 7 11 4 6 1014.3 1014.0 0.0
25/05:30am 9.2 6.7 3.6 68 2.4 NE 6 9 3 5 1014.2 1013.9 0.0
25/05:00am 12.2 9.8 5.1 62 3.3 W 7 9 4 5 1014.4 1014.1 0.0
25/04:30am 14.9 11.5 6.0 55 4.3 N 13 15 7 8 1014.3 1014.0 0.0
25/04:00am 16.5 11.9 6.3 51 5.0 NE 20 30 11 16 1014.4 1014.1 0.0
25/03:30am 16.4 11.0 6.5 52 4.9 NE 24 30 13 16 1014.4 1014.1 0.0
25/03:00am 16.4 11.3 7.6 56 4.4 NE 24 28 13 15 1014.5 1014.2 0.0
25/02:30am 15.9 11.8 7.7 58 4.1 ENE 19 24 10 13 1014.6 1014.3 0.0
25/02:00am 14.5 11.5 7.8 64 3.3 ENE 13 15 7 8 1014.9 1014.6 0.0
25/01:30am 14.5 11.0 7.1 61 3.6 E 15 15 8 8 1015.3 1015.0 0.0
25/01:00am 15.0 12.5 6.6 57 4.1 E 9 13 5 7 1015.5 1015.2 0.0
25/12:30am 16.1 11.5 6.5 53 4.7 ENE 20 24 11 13 1015.3 1015.0 0.0
25/12:00am 15.8 11.7 6.3 53 4.6 E 17 17 9 9 1015.2 1014.9 0.0
 
Date/Time
CDT
Temp
°C
App
Temp
°C
Dew
Point
°C
Rel
Hum
%
Delta-T
°C
Wind Press
QNH
hPa
Press
MSL
hPa
Rain since
9am
mm
Dir  Spd
km/h
Gust
km/h
Spd
kts
Gust
kts
24/11:30pm 17.2 13.9 8.1 55 4.6 E 15 17 8 9 1015.5 1015.2 0.0
24/11:00pm 16.3 13.6 7.5 56 4.4 E 11 13 6 7 1015.7 1015.4 0.0
24/10:30pm 16.6 14.5 9.8 64 3.6 E 11 13 6 7 1015.7 1015.4 0.0
24/10:00pm 15.8 14.3 10.6 71 2.8 ESE 9 11 5 6 1015.8 1015.5 0.0
24/09:30pm 18.5 17.8 12.0 66 3.6 SSE 7 9 4 5 1015.9 1015.6 0.0
24/09:00pm 19.1 17.6 11.9 63 4.0 SSW 11 13 6 7 1015.6 1015.3 0.0
24/08:30pm 20.2 19.0 11.7 58 4.7 SSW 9 11 5 6 1015.2 1014.9 0.0
24/08:00pm 22.0 20.4 11.4 51 5.9 SSW 11 15 6 8 1014.9 1014.6 0.0
24/07:30pm 23.9 21.6 11.9 47 6.8 SSW 15 19 8 10 1014.7 1014.4 0.0
24/07:00pm 25.0 22.3 11.6 43 7.6 SSW 17 22 9 12 1014.6 1014.3 0.0
24/06:30pm 25.9 22.7 11.3 40 8.3 SW 19 28 10 15 1014.7 1014.4 0.0
24/06:00pm 28.6 25.0 2.7 19 12.9 ENE 11 17 6 9 1014.7 1014.4 0.0
24/05:30pm 29.4 25.1 3.4 19 13.1 NE 15 22 8 12 1014.9 1014.6 0.0
24/05:00pm 28.9 24.9 3.0 19 13.0 ENE 13 20 7 11 1014.9 1014.6 0.0
24/04:30pm 28.6 24.7 3.5 20 12.6 E 13 22 7 12 1015.3 1015.0 0.0
24/04:00pm 28.6 24.5 4.2 21 12.4 E 15 33 8 18 1015.7 1015.4 0.0
24/03:30pm 27.5 23.4 4.5 23 11.7 ENE 15 28 8 15 1016.2 1015.9 0.0

Latest Capital City Observations: Canberra | Sydney | Melbourne | Brisbane | Adelaide | Perth | Hobart | Darwin

Other formats

Comma delimited format used in spreadsheet applications
http://www.bom.gov.au/fwo/IDS60901/IDS60901.95671.axf

JavaScript Object Notation format (JSON) in row-major order
http://www.bom.gov.au/fwo/IDS60901/IDS60901.95671.json

Data quality

Most of these data are generated automatically and are frequently updated. Quality checks on data are not normally performed. It is possible for incorrect values to appear. Refer to information at About Latest Weather Observations and please check the disclaimer before using these data.